createdAt,value
2019-02-16T00:00:19.957Z,9.43
2019-02-16T00:00:58.543Z,8.53
2019-02-16T00:01:32.891Z,9.23
2019-02-16T00:02:07.251Z,9.37
2019-02-16T00:02:41.841Z,9.13
2019-02-16T00:03:16.525Z,9.03
2019-02-16T00:03:50.902Z,8.87
2019-02-16T00:04:25.244Z,9.20
2019-02-16T00:04:59.589Z,8.93
2019-02-16T00:05:33.916Z,8.93
2019-02-16T00:06:08.255Z,8.50
2019-02-16T00:06:42.620Z,8.33
2019-02-16T00:07:17.049Z,9.37
2019-02-16T00:07:51.702Z,9.07
2019-02-16T00:08:26.352Z,9.43
2019-02-16T00:09:00.716Z,8.50
2019-02-16T00:09:35.077Z,9.33
2019-02-16T00:10:09.701Z,8.13
2019-02-16T00:10:44.308Z,9.10
2019-02-16T00:11:18.729Z,9.17
2019-02-16T00:11:53.041Z,9.33
2019-02-16T00:12:27.938Z,9.07
2019-02-16T00:13:02.294Z,8.63
2019-02-16T00:13:36.685Z,8.37
2019-02-16T00:14:11.050Z,8.93
2019-02-16T00:14:45.536Z,7.93
2019-02-16T00:15:19.876Z,9.77
2019-02-16T00:15:54.239Z,9.10
2019-02-16T00:16:28.830Z,8.40
2019-02-16T00:17:03.171Z,9.37
2019-02-16T00:17:37.510Z,9.53
2019-02-16T00:18:11.844Z,8.40
2019-02-16T00:18:46.252Z,8.80
2019-02-16T00:19:21.262Z,8.67
2019-02-16T00:19:55.615Z,8.80
2019-02-16T00:20:29.964Z,8.47
2019-02-16T00:21:04.527Z,8.20
2019-02-16T00:21:38.872Z,8.57
2019-02-16T00:22:13.518Z,8.70
2019-02-16T00:22:48.068Z,8.50
2019-02-16T00:23:22.703Z,8.37
2019-02-16T00:23:57.444Z,7.70
2019-02-16T00:24:31.772Z,8.03
2019-02-16T00:25:06.242Z,8.73
2019-02-16T00:25:40.574Z,8.17
2019-02-16T00:26:15.526Z,8.07
2019-02-16T00:26:49.947Z,7.70
2019-02-16T00:27:24.268Z,7.93
2019-02-16T00:27:59.533Z,8.53
2019-02-16T00:28:33.924Z,8.80
2019-02-16T00:29:08.581Z,7.93
2019-02-16T00:29:42.956Z,9.43
2019-02-16T00:30:17.566Z,8.03
2019-02-16T00:30:51.945Z,8.27
2019-02-16T00:31:26.292Z,8.23
2019-02-16T00:32:00.927Z,8.70
2019-02-16T00:32:35.455Z,8.07
2019-02-16T00:33:09.782Z,7.90
2019-02-16T00:33:44.197Z,8.60
2019-02-16T00:34:18.552Z,8.03
2019-02-16T00:34:53.194Z,8.40
2019-02-16T00:35:27.768Z,8.50
2019-02-16T00:36:02.101Z,9.07
2019-02-16T00:36:36.527Z,8.63
2019-02-16T00:37:11.110Z,9.57
2019-02-16T00:37:45.481Z,8.83
2019-02-16T00:38:19.921Z,9.40
2019-02-16T00:38:54.412Z,8.80
2019-02-16T00:39:28.712Z,8.73
2019-02-16T00:40:03.110Z,8.90
2019-02-16T00:40:37.446Z,8.20
2019-02-16T00:41:12.056Z,8.37
2019-02-16T00:41:46.666Z,8.43
2019-02-16T00:42:21.003Z,8.70
2019-02-16T00:42:55.334Z,8.23
2019-02-16T00:43:30.142Z,8.30
2019-02-16T00:44:04.756Z,8.07
2019-02-16T00:44:39.363Z,8.03
2019-02-16T00:45:13.772Z,8.83
2019-02-16T00:45:48.139Z,8.77
2019-02-16T00:46:22.757Z,8.90
2019-02-16T00:46:57.118Z,9.53
2019-02-16T00:47:31.697Z,8.20
2019-02-16T00:48:06.356Z,7.67
2019-02-16T00:48:41.055Z,8.67
2019-02-16T00:49:15.489Z,8.37
2019-02-16T00:49:49.869Z,8.37
2019-02-16T00:50:24.217Z,8.67
2019-02-16T00:50:58.833Z,8.80
2019-02-16T00:51:33.459Z,8.53
2019-02-16T00:52:08.213Z,8.73
2019-02-16T00:52:42.824Z,8.60
2019-02-16T00:53:17.442Z,7.67
2019-02-16T00:53:52.096Z,9.13
2019-02-16T00:54:26.497Z,8.93
2019-02-16T00:55:01.124Z,7.83
2019-02-16T00:55:35.439Z,9.00
2019-02-16T00:56:09.800Z,8.20
2019-02-16T00:56:44.138Z,8.30
2019-02-16T00:57:18.516Z,8.57
2019-02-16T00:57:52.903Z,8.60
2019-02-16T00:58:27.224Z,8.87
2019-02-16T00:59:01.593Z,9.20
2019-02-16T00:59:36.499Z,8.00
2019-02-16T01:00:11.426Z,8.53
2019-02-16T01:00:45.762Z,8.00
2019-02-16T01:01:20.113Z,7.43
2019-02-16T01:01:54.742Z,9.20
2019-02-16T01:02:29.311Z,8.13
2019-02-16T01:03:03.640Z,8.73
2019-02-16T01:03:38.045Z,7.87
2019-02-16T01:04:12.665Z,8.70
2019-02-16T01:04:47.317Z,8.77
2019-02-16T01:05:21.945Z,8.57
2019-02-16T01:05:56.847Z,8.73
2019-02-16T01:06:31.167Z,9.60
2019-02-16T01:07:05.489Z,9.23
2019-02-16T01:07:40.075Z,9.30
2019-02-16T01:08:14.757Z,9.40
2019-02-16T01:08:49.186Z,9.77
2019-02-16T01:09:23.702Z,8.67
2019-02-16T01:09:58.057Z,9.47
2019-02-16T01:10:32.666Z,9.73
2019-02-16T01:11:07.083Z,9.50
2019-02-16T01:11:41.425Z,9.97
2019-02-16T01:12:16.090Z,9.50
2019-02-16T01:12:51.015Z,9.23
2019-02-16T01:13:25.392Z,10.03
2019-02-16T01:14:00.298Z,10.10
2019-02-16T01:14:34.950Z,9.53
2019-02-16T01:15:10.121Z,9.57
2019-02-16T01:15:44.519Z,9.53
2019-02-16T01:16:19.213Z,9.53
2019-02-16T01:16:53.681Z,9.23
2019-02-16T01:17:28.021Z,9.53
2019-02-16T01:18:02.619Z,10.17
2019-02-16T01:18:37.025Z,9.27
2019-02-16T01:19:11.902Z,9.73
2019-02-16T01:19:46.238Z,9.30
2019-02-16T01:20:20.905Z,9.67
2019-02-16T01:20:55.232Z,9.23
2019-02-16T01:21:29.692Z,9.50
2019-02-16T01:22:04.040Z,8.80
2019-02-16T01:22:38.380Z,9.50
2019-02-16T01:23:12.744Z,9.57
2019-02-16T01:23:47.127Z,9.50
2019-02-16T01:24:21.746Z,9.00
2019-02-16T01:24:56.087Z,8.90
2019-02-16T01:25:30.433Z,9.17
2019-02-16T01:26:04.795Z,8.50
2019-02-16T01:26:39.129Z,8.37
2019-02-16T01:27:13.491Z,8.83
2019-02-16T01:27:48.071Z,8.67
2019-02-16T01:28:22.455Z,9.00
2019-02-16T01:28:56.842Z,9.03
2019-02-16T01:29:31.673Z,8.53
2019-02-16T01:30:08.282Z,9.27
2019-02-16T01:30:42.878Z,9.10
2019-02-16T01:31:17.483Z,8.67
2019-02-16T01:31:51.929Z,9.47
2019-02-16T01:32:26.514Z,9.40
2019-02-16T01:33:00.868Z,8.67
2019-02-16T01:33:35.205Z,8.80
2019-02-16T01:34:09.867Z,8.97
2019-02-16T01:34:44.260Z,8.80
2019-02-16T01:35:18.895Z,9.07
2019-02-16T01:35:53.356Z,9.30
2019-02-16T01:36:27.960Z,9.20
2019-02-16T01:37:03.473Z,9.10
2019-02-16T01:37:37.854Z,9.67
2019-02-16T01:38:12.505Z,7.93
2019-02-16T01:38:47.038Z,8.93
2019-02-16T01:39:21.553Z,8.67
2019-02-16T01:39:55.899Z,8.53
2019-02-16T01:40:30.541Z,9.13
2019-02-16T01:41:05.165Z,8.13
2019-02-16T01:41:40.242Z,8.07
2019-02-16T01:42:14.864Z,8.10
2019-02-16T01:42:49.569Z,8.43
2019-02-16T01:43:23.909Z,8.00
2019-02-16T01:43:58.297Z,9.27
2019-02-16T01:44:32.656Z,9.17
2019-02-16T01:45:08.345Z,8.43
2019-02-16T01:45:43.235Z,9.23
2019-02-16T01:46:17.923Z,8.47
2019-02-16T01:46:52.545Z,7.90
2019-02-16T01:47:27.415Z,7.97
2019-02-16T01:48:01.999Z,8.63
2019-02-16T01:48:36.656Z,8.30
2019-02-16T01:49:11.297Z,8.40
2019-02-16T01:49:45.637Z,8.17
2019-02-16T01:50:19.987Z,8.20
2019-02-16T01:50:54.318Z,8.63
2019-02-16T01:51:31.953Z,8.33
2019-02-16T01:52:04.921Z,8.30
2019-02-16T01:52:39.276Z,8.40
2019-02-16T01:53:13.907Z,7.80
2019-02-16T01:53:48.553Z,8.53
2019-02-16T01:54:22.937Z,9.20
2019-02-16T01:54:57.291Z,8.20
2019-02-16T01:55:31.906Z,7.87
2019-02-16T01:56:06.512Z,8.33
2019-02-16T01:56:41.179Z,8.27
2019-02-16T01:57:15.552Z,8.43
2019-02-16T01:57:50.169Z,8.07
2019-02-16T01:58:24.537Z,7.90
2019-02-16T01:58:59.276Z,8.20
2019-02-16T01:59:34.155Z,8.70
2019-02-16T02:00:10.697Z,8.67
2019-02-16T02:00:45.079Z,8.80
2019-02-16T02:01:19.477Z,7.87
2019-02-16T02:01:54.154Z,8.17
2019-02-16T02:02:28.746Z,8.67
2019-02-16T02:03:03.078Z,8.53
2019-02-16T02:03:37.427Z,8.93
2019-02-16T02:04:12.046Z,7.37
2019-02-16T02:04:46.780Z,7.87
2019-02-16T02:05:21.488Z,8.67
2019-02-16T02:05:56.180Z,8.83
2019-02-16T02:06:30.668Z,8.80
2019-02-16T02:07:05.454Z,8.27
2019-02-16T02:07:40.178Z,8.60
2019-02-16T02:08:14.933Z,8.30
2019-02-16T02:08:49.278Z,8.43
2019-02-16T02:09:23.909Z,7.93
2019-02-16T02:09:58.265Z,8.90
2019-02-16T02:10:32.904Z,8.23
2019-02-16T02:11:07.766Z,8.30
2019-02-16T02:11:42.118Z,8.83
2019-02-16T02:12:16.517Z,8.23
2019-02-16T02:12:50.910Z,8.00
2019-02-16T02:13:25.274Z,8.47
2019-02-16T02:13:59.629Z,7.77
2019-02-16T02:14:34.274Z,8.17
2019-02-16T02:15:09.135Z,8.50
2019-02-16T02:15:43.508Z,7.93
2019-02-16T02:16:17.889Z,8.60
2019-02-16T02:16:52.667Z,8.77
2019-02-16T02:17:27.299Z,7.97
2019-02-16T02:18:01.948Z,7.70
2019-02-16T02:18:36.275Z,7.87
2019-02-16T02:19:10.661Z,8.10
2019-02-16T02:19:45.143Z,8.40
2019-02-16T02:20:19.523Z,8.63
2019-02-16T02:20:53.951Z,8.13
2019-02-16T02:21:28.287Z,7.70
2019-02-16T02:22:02.675Z,8.40
2019-02-16T02:22:37.553Z,7.90
2019-02-16T02:23:11.898Z,8.53
2019-02-16T02:23:46.586Z,7.93
2019-02-16T02:24:21.244Z,8.40
2019-02-16T02:24:55.685Z,7.67
2019-02-16T02:25:30.565Z,8.80
2019-02-16T02:26:05.179Z,7.53
2019-02-16T02:26:39.788Z,8.00
2019-02-16T02:27:14.167Z,8.03
2019-02-16T02:27:48.529Z,7.53
2019-02-16T02:28:23.384Z,8.83
2019-02-16T02:28:58.063Z,8.43
2019-02-16T02:29:32.702Z,8.50
2019-02-16T02:30:08.081Z,8.50
2019-02-16T02:30:42.412Z,8.23
2019-02-16T02:31:16.831Z,7.60
2019-02-16T02:31:51.261Z,7.30
2019-02-16T02:32:25.983Z,7.47
2019-02-16T02:33:00.403Z,7.50
2019-02-16T02:33:34.729Z,7.43
2019-02-16T02:34:09.326Z,7.40
2019-02-16T02:34:43.989Z,7.33
2019-02-16T02:35:18.351Z,7.03
2019-02-16T02:35:52.709Z,7.23
2019-02-16T02:36:27.066Z,7.30
2019-02-16T02:37:01.649Z,7.60
2019-02-16T02:37:36.354Z,7.30
2019-02-16T02:38:11.278Z,7.60
2019-02-16T02:38:46.278Z,7.73
2019-02-16T02:39:21.255Z,7.27
2019-02-16T02:39:55.613Z,8.37
2019-02-16T02:40:29.949Z,7.50
2019-02-16T02:41:04.267Z,7.33
2019-02-16T02:41:38.890Z,7.70
2019-02-16T02:42:13.848Z,7.87
2019-02-16T02:42:48.195Z,8.10
2019-02-16T02:43:22.945Z,7.67
2019-02-16T02:43:57.538Z,6.93
2019-02-16T02:44:32.228Z,8.00
2019-02-16T02:45:07.736Z,7.20
2019-02-16T02:45:42.105Z,7.40
2019-02-16T02:46:16.527Z,7.70
2019-02-16T02:46:51.147Z,7.57
2019-02-16T02:47:25.496Z,7.63
2019-02-16T02:48:00.092Z,7.57
2019-02-16T02:48:35.072Z,7.53
2019-02-16T02:49:09.714Z,7.67
2019-02-16T02:49:44.425Z,7.30
2019-02-16T02:50:19.462Z,7.20
2019-02-16T02:50:53.864Z,6.90
2019-02-16T02:51:28.157Z,7.47
2019-02-16T02:52:02.820Z,7.17
2019-02-16T02:52:37.752Z,7.80
2019-02-16T02:53:12.377Z,7.03
2019-02-16T02:53:46.719Z,7.07
2019-02-16T02:54:21.125Z,7.53
2019-02-16T02:54:55.521Z,7.30
2019-02-16T02:55:29.874Z,7.23
2019-02-16T02:56:04.224Z,7.63
2019-02-16T02:56:38.833Z,7.60
2019-02-16T02:57:13.199Z,7.20
2019-02-16T02:57:47.602Z,7.63
2019-02-16T02:58:22.281Z,7.90
2019-02-16T02:58:56.630Z,7.30
2019-02-16T02:59:31.233Z,6.53
2019-02-16T03:00:06.423Z,7.43
2019-02-16T03:00:40.768Z,7.00
2019-02-16T03:01:15.176Z,6.90
2019-02-16T03:01:49.541Z,7.27
2019-02-16T03:02:24.166Z,7.50
2019-02-16T03:02:58.493Z,7.23
2019-02-16T03:03:33.071Z,7.10
2019-02-16T03:04:07.390Z,7.37
2019-02-16T03:04:41.757Z,6.77
2019-02-16T03:05:16.139Z,8.20
2019-02-16T03:05:50.522Z,8.13
2019-02-16T03:06:24.963Z,7.70
2019-02-16T03:06:59.852Z,7.13
2019-02-16T03:07:34.184Z,6.73
2019-02-16T03:08:08.767Z,7.30
2019-02-16T03:08:43.118Z,7.67
2019-02-16T03:09:17.576Z,7.07
2019-02-16T03:09:51.981Z,8.00
2019-02-16T03:10:26.320Z,7.57
2019-02-16T03:11:00.982Z,7.47
2019-02-16T03:11:35.565Z,6.90
2019-02-16T03:12:09.899Z,7.50
2019-02-16T03:12:44.552Z,7.00
2019-02-16T03:13:18.935Z,7.83
2019-02-16T03:13:53.856Z,7.77
2019-02-16T03:14:28.423Z,7.77
2019-02-16T03:15:03.188Z,7.37
2019-02-16T03:15:38.068Z,7.73
2019-02-16T03:16:12.398Z,7.93
2019-02-16T03:16:47.268Z,7.80
2019-02-16T03:17:21.689Z,7.37
2019-02-16T03:17:56.126Z,7.53
2019-02-16T03:18:30.745Z,7.43
2019-02-16T03:19:05.084Z,7.77
2019-02-16T03:19:39.437Z,7.77
2019-02-16T03:20:14.527Z,8.07
2019-02-16T03:20:48.977Z,8.17
2019-02-16T03:21:23.327Z,7.63
2019-02-16T03:22:02.836Z,7.70
2019-02-16T03:23:14.595Z,7.23
2019-02-16T03:23:49.026Z,7.50
2019-02-16T03:24:23.470Z,7.53
2019-02-16T03:24:58.393Z,7.87
2019-02-16T03:25:32.714Z,8.00
2019-02-16T03:26:32.314Z,7.67
2019-02-16T03:27:15.296Z,7.10
2019-02-16T03:28:26.643Z,7.90
2019-02-16T03:29:22.629Z,7.93
2019-02-16T03:30:12.706Z,7.43
2019-02-16T03:31:28.711Z,7.67
2019-02-16T03:32:53.388Z,7.60
2019-02-16T03:33:50.000Z,7.87
2019-02-16T03:34:28.793Z,7.47
2019-02-16T03:35:16.488Z,7.13
2019-02-16T03:36:14.488Z,8.07
2019-02-16T03:37:53.672Z,6.90
2019-02-16T03:39:21.154Z,7.17
2019-02-16T03:39:55.762Z,7.77
2019-02-16T03:40:30.438Z,8.13
2019-02-16T03:41:04.798Z,8.23
2019-02-16T03:41:39.105Z,7.27
2019-02-16T03:42:13.811Z,8.10
2019-02-16T03:42:48.532Z,8.43
2019-02-16T03:43:22.926Z,7.70
2019-02-16T03:43:57.261Z,7.60
2019-02-16T03:44:31.920Z,8.00
2019-02-16T03:45:06.716Z,8.10
2019-02-16T03:45:41.094Z,8.10
2019-02-16T03:46:15.775Z,8.13
2019-02-16T03:46:50.365Z,7.70
2019-02-16T03:47:24.769Z,8.50
2019-02-16T03:47:59.412Z,7.73
2019-02-16T03:48:33.738Z,8.30
2019-02-16T03:49:08.175Z,7.80
2019-02-16T03:49:42.778Z,7.70
2019-02-16T03:50:17.475Z,8.60
2019-02-16T03:50:51.856Z,8.10
2019-02-16T03:51:26.207Z,8.60
2019-02-16T03:52:00.544Z,7.67
2019-02-16T03:52:34.923Z,8.30
2019-02-16T03:53:09.246Z,8.37
2019-02-16T03:53:43.938Z,8.53
2019-02-16T03:54:18.287Z,8.23
2019-02-16T03:54:52.682Z,7.20
2019-02-16T03:55:27.668Z,7.90
2019-02-16T03:56:02.002Z,8.67
2019-02-16T03:56:36.625Z,7.60
2019-02-16T03:57:11.016Z,7.90
2019-02-16T03:57:45.928Z,7.73
2019-02-16T03:58:20.568Z,7.80
2019-02-16T03:58:54.915Z,7.83
2019-02-16T03:59:29.261Z,8.17
2019-02-16T04:00:03.992Z,7.73
2019-02-16T04:00:37.132Z,8.40
2019-02-16T04:01:11.446Z,8.00
2019-02-16T04:01:45.908Z,7.73
2019-02-16T04:02:20.628Z,7.87
2019-02-16T04:02:55.229Z,8.27
2019-02-16T04:03:29.862Z,7.80
2019-02-16T04:04:04.200Z,7.83
2019-02-16T04:04:38.856Z,7.43
2019-02-16T04:05:13.219Z,7.83
2019-02-16T04:05:47.920Z,8.13
2019-02-16T04:06:22.293Z,8.17
2019-02-16T04:06:56.642Z,8.07
2019-02-16T04:07:31.360Z,8.90
2019-02-16T04:08:05.984Z,7.70
2019-02-16T04:08:40.317Z,8.00
2019-02-16T04:09:14.687Z,7.73
2019-02-16T04:09:49.086Z,8.00
2019-02-16T04:10:26.508Z,8.10
2019-02-16T04:11:01.120Z,7.90
2019-02-16T04:11:35.630Z,8.60
2019-02-16T04:12:10.221Z,8.87
2019-02-16T04:12:45.253Z,7.97
2019-02-16T04:13:19.900Z,7.77
2019-02-16T04:13:54.274Z,8.50
2019-02-16T04:14:28.888Z,8.33
2019-02-16T04:15:03.495Z,8.37
2019-02-16T04:15:38.730Z,8.87
2019-02-16T04:16:13.669Z,8.67
2019-02-16T04:16:48.295Z,8.70
2019-02-16T04:17:22.667Z,8.33
2019-02-16T04:17:57.302Z,8.37
2019-02-16T04:18:31.926Z,9.10
2019-02-16T04:19:06.352Z,9.20
2019-02-16T04:19:41.253Z,9.37
2019-02-16T04:20:15.638Z,9.03
2019-02-16T04:20:50.265Z,8.43
2019-02-16T04:21:24.760Z,9.13
2019-02-16T04:21:59.092Z,8.80
2019-02-16T04:22:33.418Z,8.27
2019-02-16T04:23:07.742Z,8.80
2019-02-16T04:23:42.080Z,8.90
2019-02-16T04:24:16.828Z,8.73
2019-02-16T04:24:51.462Z,9.40
2019-02-16T04:25:25.800Z,10.03
2019-02-16T04:26:00.166Z,9.67
2019-02-16T04:26:34.491Z,9.40
2019-02-16T04:27:09.354Z,9.90
2019-02-16T04:27:44.342Z,9.77
2019-02-16T04:28:18.739Z,10.73
2019-02-16T04:28:53.434Z,9.40
2019-02-16T04:29:28.273Z,10.17
2019-02-16T04:30:03.155Z,10.73
2019-02-16T04:30:37.489Z,10.33
2019-02-16T04:31:12.178Z,10.90
2019-02-16T04:31:46.535Z,9.17
2019-02-16T04:32:20.910Z,10.50
2019-02-16T04:32:55.251Z,10.77
2019-02-16T04:33:29.890Z,10.23
2019-02-16T04:34:04.476Z,9.53
2019-02-16T04:34:39.084Z,10.47
2019-02-16T04:35:13.810Z,10.10
2019-02-16T04:35:48.512Z,10.17
2019-02-16T04:36:22.925Z,11.53
2019-02-16T04:36:57.518Z,11.47
2019-02-16T04:37:32.432Z,11.47
2019-02-16T04:38:06.859Z,10.43
2019-02-16T04:38:41.449Z,10.83
2019-02-16T04:39:15.903Z,10.40
2019-02-16T04:39:50.275Z,11.03
2019-02-16T04:40:24.972Z,10.80
2019-02-16T04:40:59.854Z,11.00
2019-02-16T04:41:34.255Z,10.43
2019-02-16T04:42:08.873Z,10.87
2019-02-16T04:42:43.511Z,10.93
2019-02-16T04:43:17.867Z,11.67
2019-02-16T04:43:52.242Z,10.87
2019-02-16T04:44:27.068Z,10.67
2019-02-16T04:45:01.752Z,10.50
2019-02-16T04:45:36.110Z,10.73
2019-02-16T04:46:10.500Z,10.93
2019-02-16T04:46:45.168Z,11.07
2019-02-16T04:47:19.962Z,10.50
2019-02-16T04:47:54.578Z,10.37
2019-02-16T04:48:28.925Z,10.90
2019-02-16T04:49:03.280Z,9.63
2019-02-16T04:49:37.639Z,10.30
2019-02-16T04:50:12.227Z,10.23
2019-02-16T04:50:46.609Z,9.77
2019-02-16T04:51:21.072Z,10.50
2019-02-16T04:51:55.465Z,9.60
2019-02-16T04:52:34.680Z,9.77
2019-02-16T04:53:06.118Z,10.27
2019-02-16T04:53:40.480Z,10.03
2019-02-16T04:54:14.890Z,10.00
2019-02-16T04:54:49.394Z,10.20
2019-02-16T04:55:23.780Z,10.23
2019-02-16T04:55:58.396Z,9.57
2019-02-16T04:56:32.862Z,9.73
2019-02-16T04:57:07.483Z,9.67
2019-02-16T04:57:41.830Z,9.40
2019-02-16T04:58:16.227Z,9.87
2019-02-16T04:58:50.627Z,9.93
2019-02-16T04:59:25.286Z,9.80
2019-02-16T04:59:59.610Z,8.83
2019-02-16T05:00:34.218Z,10.00
2019-02-16T05:01:08.556Z,9.90
2019-02-16T05:01:43.232Z,9.33
2019-02-16T05:02:18.233Z,9.27
2019-02-16T05:02:52.618Z,9.37
2019-02-16T05:03:27.230Z,8.80
2019-02-16T05:04:01.837Z,9.10
2019-02-16T05:04:36.406Z,9.80
2019-02-16T05:05:10.999Z,9.67
2019-02-16T05:05:45.401Z,9.77
2019-02-16T05:06:20.074Z,9.17
2019-02-16T05:06:54.458Z,9.90
2019-02-16T05:07:29.079Z,9.20
2019-02-16T05:08:03.417Z,9.80
2019-02-16T05:08:37.767Z,9.77
2019-02-16T05:09:12.123Z,9.50
2019-02-16T05:09:46.500Z,9.40
2019-02-16T05:10:21.236Z,9.07
2019-02-16T05:10:55.851Z,8.93
2019-02-16T05:11:30.512Z,8.90
2019-02-16T05:12:05.110Z,9.97
2019-02-16T05:12:40.005Z,9.50
2019-02-16T05:13:14.642Z,9.23
2019-02-16T05:13:49.278Z,9.17
2019-02-16T05:14:23.644Z,8.97
2019-02-16T05:14:58.278Z,8.90
2019-02-16T05:15:32.634Z,9.40
2019-02-16T05:16:06.976Z,9.07
2019-02-16T05:16:41.631Z,9.10
2019-02-16T05:17:16.003Z,8.80
2019-02-16T05:17:50.384Z,9.07
2019-02-16T05:18:24.968Z,7.90
2019-02-16T05:18:59.324Z,9.07
2019-02-16T05:19:34.262Z,9.53
2019-02-16T05:20:08.602Z,8.97
2019-02-16T05:20:43.168Z,9.17
2019-02-16T05:21:17.538Z,8.57
2019-02-16T05:21:51.986Z,9.10
2019-02-16T05:22:26.927Z,8.10
2019-02-16T05:23:01.979Z,8.80
2019-02-16T05:23:36.560Z,8.83
2019-02-16T05:24:11.261Z,8.33
2019-02-16T05:24:45.698Z,8.80
2019-02-16T05:25:20.119Z,8.73
2019-02-16T05:25:54.469Z,8.40
2019-02-16T05:26:28.797Z,7.90
2019-02-16T05:27:03.191Z,7.90
2019-02-16T05:27:37.840Z,9.13
2019-02-16T05:28:12.448Z,8.00
2019-02-16T05:28:47.174Z,9.10
2019-02-16T05:29:21.765Z,8.73
2019-02-16T05:29:56.402Z,7.93
2019-02-16T05:30:31.010Z,9.13
2019-02-16T05:31:05.654Z,9.57
2019-02-16T05:31:40.261Z,8.37
2019-02-16T05:32:15.301Z,8.13
2019-02-16T05:32:49.692Z,7.90
2019-02-16T05:33:24.048Z,8.60
2019-02-16T05:33:58.976Z,9.43
2019-02-16T05:34:33.509Z,9.10
2019-02-16T05:35:08.128Z,8.87
2019-02-16T05:35:42.962Z,8.53
2019-02-16T05:36:17.347Z,8.83
2019-02-16T05:36:52.043Z,8.70
2019-02-16T05:37:26.674Z,9.37
2019-02-16T05:38:01.026Z,8.07
2019-02-16T05:38:35.651Z,8.17
2019-02-16T05:39:09.975Z,8.03
2019-02-16T05:39:44.330Z,8.33
2019-02-16T05:40:18.770Z,7.97
2019-02-16T05:40:53.403Z,8.03
2019-02-16T05:41:27.743Z,8.67
2019-02-16T05:42:02.148Z,8.30
2019-02-16T05:42:36.477Z,8.17
2019-02-16T05:43:11.038Z,8.10
2019-02-16T05:43:45.406Z,8.50
2019-02-16T05:44:19.853Z,7.90
2019-02-16T05:44:54.487Z,8.13
2019-02-16T05:45:29.071Z,7.43
2019-02-16T05:46:03.655Z,7.73
2019-02-16T05:46:38.007Z,7.20
2019-02-16T05:47:12.751Z,7.97
2019-02-16T05:47:47.162Z,8.00
2019-02-16T05:48:21.758Z,7.73
2019-02-16T05:48:56.394Z,8.60
2019-02-16T05:49:30.730Z,7.63
2019-02-16T05:50:05.173Z,7.77
2019-02-16T05:50:39.509Z,7.80
2019-02-16T05:51:13.884Z,7.33
2019-02-16T05:51:48.326Z,7.97
2019-02-16T05:52:22.685Z,7.60
2019-02-16T05:52:57.311Z,7.83
2019-02-16T05:53:31.667Z,7.93
2019-02-16T05:54:06.525Z,8.27
2019-02-16T05:54:40.868Z,8.47
2019-02-16T05:55:15.260Z,7.80
2019-02-16T05:55:49.658Z,7.90
2019-02-16T05:56:24.019Z,8.43
2019-02-16T05:56:58.391Z,8.43
2019-02-16T05:57:32.805Z,7.57
2019-02-16T05:58:07.719Z,7.97
2019-02-16T05:58:42.499Z,8.77
2019-02-16T05:59:16.864Z,7.60
2019-02-16T05:59:53.970Z,8.30
2019-02-16T06:00:30.008Z,7.77
2019-02-16T06:01:04.451Z,7.83
2019-02-16T06:01:38.796Z,7.73
2019-02-16T06:02:13.209Z,8.63
2019-02-16T06:02:47.592Z,7.57
2019-02-16T06:03:21.968Z,7.97
2019-02-16T06:03:56.604Z,7.73
2019-02-16T06:04:30.936Z,8.13
2019-02-16T06:05:05.705Z,8.20
2019-02-16T06:05:40.921Z,7.30
2019-02-16T06:06:15.472Z,7.73
2019-02-16T06:06:50.190Z,8.37
2019-02-16T06:07:25.190Z,7.50
2019-02-16T06:07:59.577Z,7.60
2019-02-16T06:08:33.890Z,7.67
2019-02-16T06:09:08.232Z,8.40
2019-02-16T06:09:42.577Z,8.00
2019-02-16T06:10:16.989Z,8.60
2019-02-16T06:10:51.636Z,8.27
2019-02-16T06:11:26.247Z,8.83
2019-02-16T06:12:00.616Z,8.60
2019-02-16T06:12:35.758Z,8.40
2019-02-16T06:13:10.336Z,7.97
2019-02-16T06:13:44.727Z,8.03
2019-02-16T06:14:19.136Z,7.90
2019-02-16T06:14:53.525Z,8.37
2019-02-16T06:15:27.854Z,7.90
2019-02-16T06:16:02.465Z,8.10
2019-02-16T06:16:36.830Z,7.77
2019-02-16T06:17:11.335Z,7.37
2019-02-16T06:17:45.729Z,7.27
2019-02-16T06:18:20.741Z,7.10
2019-02-16T06:18:55.373Z,7.37
2019-02-16T06:19:29.741Z,7.90
2019-02-16T06:20:04.129Z,8.30
2019-02-16T06:20:38.471Z,8.47
2019-02-16T06:21:13.364Z,8.10
2019-02-16T06:21:47.761Z,8.47
2019-02-16T06:22:22.188Z,7.63
2019-02-16T06:23:03.694Z,8.13
2019-02-16T06:23:32.577Z,7.50
2019-02-16T06:24:07.161Z,7.87
2019-02-16T06:24:41.493Z,7.63
2019-02-16T06:25:15.890Z,8.03
2019-02-16T06:25:50.283Z,7.23
2019-02-16T06:26:24.685Z,7.97
2019-02-16T06:26:59.014Z,8.57
2019-02-16T06:27:33.659Z,7.27
2019-02-16T06:28:08.296Z,7.67
2019-02-16T06:28:42.681Z,7.43
2019-02-16T06:29:17.099Z,7.53
2019-02-16T06:29:51.795Z,8.13
2019-02-16T06:30:26.235Z,7.80
2019-02-16T06:31:00.835Z,8.37
2019-02-16T06:31:35.180Z,7.90
2019-02-16T06:32:09.517Z,8.50
2019-02-16T06:32:44.226Z,6.80
2019-02-16T06:33:18.860Z,8.33
2019-02-16T06:33:53.534Z,7.53
2019-02-16T06:34:28.117Z,7.60
2019-02-16T06:35:30.356Z,7.80
2019-02-16T06:36:11.302Z,7.73
2019-02-16T06:36:45.776Z,8.93
2019-02-16T06:37:24.476Z,7.67
2019-02-16T06:37:59.059Z,7.53
2019-02-16T06:38:33.436Z,7.67
2019-02-16T06:39:08.034Z,6.87
2019-02-16T06:39:42.613Z,8.00
2019-02-16T06:40:16.975Z,7.77
2019-02-16T06:40:51.322Z,7.87
2019-02-16T06:41:25.672Z,8.50
2019-02-16T06:42:00.613Z,8.20
2019-02-16T06:42:35.550Z,7.43
2019-02-16T06:43:09.975Z,7.73
2019-02-16T06:43:44.351Z,7.97
2019-02-16T06:44:18.868Z,7.60
2019-02-16T06:44:53.219Z,7.47
2019-02-16T06:45:27.801Z,7.70
2019-02-16T06:46:02.138Z,8.20
2019-02-16T06:46:36.486Z,7.53
2019-02-16T06:47:10.808Z,8.30
2019-02-16T06:47:45.490Z,7.93
2019-02-16T06:48:20.129Z,8.30
2019-02-16T06:48:54.477Z,8.10
2019-02-16T06:49:29.103Z,8.17
2019-02-16T06:50:03.703Z,8.33
2019-02-16T06:50:38.040Z,7.27
2019-02-16T06:51:12.687Z,7.80
2019-02-16T06:51:47.390Z,8.33
2019-02-16T06:52:22.112Z,7.90
2019-02-16T06:52:56.480Z,8.37
2019-02-16T06:53:31.154Z,8.97
2019-02-16T06:54:05.581Z,8.60
2019-02-16T06:54:40.179Z,7.87
2019-02-16T06:55:14.534Z,8.00
2019-02-16T06:56:02.296Z,8.30
2019-02-16T06:56:44.750Z,8.53
2019-02-16T06:57:22.963Z,7.97
2019-02-16T06:57:57.350Z,8.53
2019-02-16T06:58:32.368Z,8.80
2019-02-16T06:59:06.986Z,8.57
2019-02-16T06:59:41.563Z,8.03
2019-02-16T07:00:17.674Z,7.97
2019-02-16T07:00:52.041Z,8.13
2019-02-16T07:01:26.382Z,8.23
2019-02-16T07:02:00.708Z,8.10
2019-02-16T07:02:35.360Z,8.73
2019-02-16T07:03:09.728Z,8.07
2019-02-16T07:03:44.805Z,9.17
2019-02-16T07:04:19.583Z,8.60
2019-02-16T07:04:53.907Z,9.80
2019-02-16T07:05:28.288Z,9.10
2019-02-16T07:06:02.926Z,8.47
2019-02-16T07:06:37.320Z,8.57
2019-02-16T07:07:11.662Z,8.50
2019-02-16T07:07:46.101Z,8.57
2019-02-16T07:08:20.784Z,9.03
2019-02-16T07:08:55.145Z,8.53
2019-02-16T07:09:29.481Z,8.33
2019-02-16T07:10:04.129Z,9.60
2019-02-16T07:10:38.466Z,8.73
2019-02-16T07:11:12.803Z,8.67
2019-02-16T07:11:47.147Z,9.23
2019-02-16T07:12:21.669Z,8.40
2019-02-16T07:12:56.018Z,8.47
2019-02-16T07:13:30.619Z,8.70
2019-02-16T07:14:05.270Z,8.80
2019-02-16T07:14:39.619Z,8.97
2019-02-16T07:15:14.358Z,8.53
2019-02-16T07:16:07.701Z,8.40
2019-02-16T07:17:10.233Z,9.27
2019-02-16T07:17:51.847Z,9.73
2019-02-16T07:18:32.105Z,10.20
2019-02-16T07:19:34.768Z,9.97
2019-02-16T07:20:09.487Z,9.63
2019-02-16T07:20:44.103Z,9.90
2019-02-16T07:21:18.540Z,10.20
2019-02-16T07:21:53.201Z,9.87
2019-02-16T07:22:27.895Z,9.37
2019-02-16T07:23:02.279Z,9.30
2019-02-16T07:23:36.619Z,9.40
2019-02-16T07:24:11.224Z,8.80
2019-02-16T07:24:45.595Z,8.97
2019-02-16T07:25:19.982Z,8.70
2019-02-16T07:25:54.882Z,8.67
2019-02-16T07:26:29.220Z,9.07
2019-02-16T07:27:03.933Z,9.63
2019-02-16T07:27:38.519Z,8.73
2019-02-16T07:28:13.072Z,9.07
2019-02-16T07:28:47.377Z,8.77
2019-02-16T07:29:22.311Z,9.37
2019-02-16T07:29:56.943Z,9.57
2019-02-16T07:30:31.317Z,9.00
2019-02-16T07:31:05.904Z,8.83
2019-02-16T07:31:40.483Z,9.00
2019-02-16T07:32:14.830Z,9.37
2019-02-16T07:32:49.195Z,9.10
2019-02-16T07:33:23.817Z,8.87
2019-02-16T07:33:58.466Z,9.40
2019-02-16T07:34:33.062Z,9.63
2019-02-16T07:35:08.018Z,9.43
2019-02-16T07:35:43.219Z,8.93
2019-02-16T07:36:18.020Z,9.53
2019-02-16T07:36:52.673Z,8.60
2019-02-16T07:37:27.119Z,9.70
2019-02-16T07:38:01.440Z,9.70
2019-02-16T07:38:36.083Z,9.97
2019-02-16T07:39:10.695Z,9.90
2019-02-16T07:39:45.224Z,11.03
2019-02-16T07:40:19.662Z,10.43
2019-02-16T07:40:54.266Z,12.27
2019-02-16T07:41:28.856Z,10.50
2019-02-16T07:42:03.217Z,11.10
2019-02-16T07:42:53.845Z,11.27
2019-02-16T07:43:59.344Z,11.57
2019-02-16T07:45:04.604Z,11.20
2019-02-16T07:45:57.909Z,11.87
2019-02-16T07:47:03.419Z,11.67
2019-02-16T07:47:55.886Z,11.47
2019-02-16T07:48:54.567Z,12.27
2019-02-16T07:49:57.252Z,12.43
2019-02-16T07:50:50.856Z,11.53
2019-02-16T07:51:40.079Z,12.43
2019-02-16T07:52:32.184Z,11.87